La Linea de la Concepcion, Spain
Current Conditions -  °F | °C
As of 11:50 PM on Wednesday 22 Oct 2014 (Local Time) from LXGB Reporting Station
Scattered Clouds Scattered Clouds  
Wind Chill: 68°   Ceiling: Unl
Heat Index: 68°   Visibility: 6mi
Dew Point: 66°   Wind: 14mph
Humidity: 94%   Direction: 90°E
Pressure: 30.18"   Gusts: NA
Location:  36.17°N, 5.35°W
Report Text: LXGB 222150Z AUTO 09012KT 9000 // SCT003/// 20/19 Q1022
Loading
Personal Weather Stations






























Interactive Weather Map
Tropical Storm Tracking
New forecast layout! Learn more

10-Day Weather Forecast

Advertisements
Track Severe Weather on mobile